sensor_id;sensor_type;location;lat;lon;timestamp;pressure;altitude;pressure_sealevel;temperature
64916;BMP280;51427;-27.442;153.014;2022-12-07T00:01:42;100576.09;;;33.04
64916;BMP280;51427;-27.442;153.014;2022-12-07T00:04:13;100580.63;;;33.59
64916;BMP280;51427;-27.442;153.014;2022-12-07T00:06:43;100577.16;;;34.07
64916;BMP280;51427;-27.442;153.014;2022-12-07T00:09:13;100580.63;;;33.59
64916;BMP280;51427;-27.442;153.014;2022-12-07T00:11:41;100574.06;;;33.39
64916;BMP280;51427;-27.442;153.014;2022-12-07T00:14:13;100584.78;;;33.22
64916;BMP280;51427;-27.442;153.014;2022-12-07T00:16:42;100582.03;;;32.78
64916;BMP280;51427;-27.442;153.014;2022-12-07T00:19:11;100592.56;;;32.34
64916;BMP280;51427;-27.442;153.014;2022-12-07T00:21:39;100591.16;;;32.55
64916;BMP280;51427;-27.442;153.014;2022-12-07T00:24:07;100591.13;;;30.69
64916;BMP280;51427;-27.442;153.014;2022-12-07T00:26:38;100581.97;;;32.90
64916;BMP280;51427;-27.442;153.014;2022-12-07T00:29:21;100583.63;;;32.91
64916;BMP280;51427;-27.442;153.014;2022-12-07T00:31:49;100575.13;;;32.94
64916;BMP280;51427;-27.442;153.014;2022-12-07T00:34:21;100587.22;;;31.48
64916;BMP280;51427;-27.442;153.014;2022-12-07T00:36:49;100589.56;;;31.56
64916;BMP280;51427;-27.442;153.014;2022-12-07T00:39:17;100583.97;;;31.58
64916;BMP280;51427;-27.442;153.014;2022-12-07T00:41:45;100594.59;;;31.75
64916;BMP280;51427;-27.442;153.014;2022-12-07T00:44:12;100601.28;;;31.15
64916;BMP280;51427;-27.442;153.014;2022-12-07T00:46:40;100595.50;;;31.00
64916;BMP280;51427;-27.442;153.014;2022-12-07T00:49:08;100589.63;;;31.79
64916;BMP280;51427;-27.442;153.014;2022-12-07T00:51:35;100580.53;;;31.10
64916;BMP280;51427;-27.442;153.014;2022-12-07T00:54:03;100582.00;;;31.64
64916;BMP280;51427;-27.442;153.014;2022-12-07T00:56:31;100576.66;;;31.35
64916;BMP280;51427;-27.442;153.014;2022-12-07T00:59:03;100578.31;;;31.36
64916;BMP280;51427;-27.442;153.014;2022-12-07T01:01:33;100559.56;;;32.22
64916;BMP280;51427;-27.442;153.014;2022-12-07T01:04:02;100567.63;;;31.18
64916;BMP280;51427;-27.442;153.014;2022-12-07T01:06:30;100568.06;;;31.04
64916;BMP280;51427;-27.442;153.014;2022-12-07T01:08:58;100569.16;;;31.15
64916;BMP280;51427;-27.442;153.014;2022-12-07T01:11:28;100556.28;;;31.75
64916;BMP280;51427;-27.442;153.014;2022-12-07T01:13:58;100568.56;;;32.28
64916;BMP280;51427;-27.442;153.014;2022-12-07T01:16:28;100556.06;;;32.33
64916;BMP280;51427;-27.442;153.014;2022-12-07T01:18:57;100564.25;;;32.04
64916;BMP280;51427;-27.442;153.014;2022-12-07T01:21:31;100546.28;;;32.05
64916;BMP280;51427;-27.442;153.014;2022-12-07T01:24:07;100536.88;;;32.75
64916;BMP280;51427;-27.442;153.014;2022-12-07T01:26:36;100542.72;;;31.47
64916;BMP280;51427;-27.442;153.014;2022-12-07T01:29:04;100542.16;;;31.57
64916;BMP280;51427;-27.442;153.014;2022-12-07T01:31:32;100529.69;;;32.53
64916;BMP280;51427;-27.442;153.014;2022-12-07T01:34:00;100542.34;;;32.69
64916;BMP280;51427;-27.442;153.014;2022-12-07T01:36:33;100550.31;;;31.62
64916;BMP280;51427;-27.442;153.014;2022-12-07T01:39:04;100528.56;;;32.49
64916;BMP280;51427;-27.442;153.014;2022-12-07T01:41:35;100539.50;;;31.68
64916;BMP280;51427;-27.442;153.014;2022-12-07T01:44:24;100533.66;;;32.62
64916;BMP280;51427;-27.442;153.014;2022-12-07T01:46:58;100538.72;;;32.13
64916;BMP280;51427;-27.442;153.014;2022-12-07T01:49:31;100531.78;;;33.62
64916;BMP280;51427;-27.442;153.014;2022-12-07T01:54:32;100522.28;;;31.87
64916;BMP280;51427;-27.442;153.014;2022-12-07T01:57:00;100505.56;;;32.81
64916;BMP280;51427;-27.442;153.014;2022-12-07T01:59:28;100518.16;;;31.62
64916;BMP280;51427;-27.442;153.014;2022-12-07T02:01:56;100530.84;;;31.14
64916;BMP280;51427;-27.442;153.014;2022-12-07T02:04:24;100516.59;;;32.68
64916;BMP280;51427;-27.442;153.014;2022-12-07T02:06:52;100514.13;;;33.06
64916;BMP280;51427;-27.442;153.014;2022-12-07T02:09:21;100513.59;;;32.92
64916;BMP280;51427;-27.442;153.014;2022-12-07T02:11:48;100505.53;;;33.36
64916;BMP280;51427;-27.442;153.014;2022-12-07T02:14:16;100498.63;;;33.73
64916;BMP280;51427;-27.442;153.014;2022-12-07T02:30:54;100481.94;;;31.48
64916;BMP280;51427;-27.442;153.014;2022-12-07T02:33:29;100483.22;;;31.57
64916;BMP280;51427;-27.442;153.014;2022-12-07T02:36:12;100472.03;;;31.71
64916;BMP280;51427;-27.442;153.014;2022-12-07T02:41:51;100463.06;;;33.50
64916;BMP280;51427;-27.442;153.014;2022-12-07T02:44:23;100457.94;;;33.15
64916;BMP280;51427;-27.442;153.014;2022-12-07T02:47:03;100449.59;;;33.01
64916;BMP280;51427;-27.442;153.014;2022-12-07T02:50:03;100446.44;;;32.48
64916;BMP280;51427;-27.442;153.014;2022-12-07T02:52:31;100450.72;;;32.60
64916;BMP280;51427;-27.442;153.014;2022-12-07T02:54:59;100443.13;;;32.85
64916;BMP280;51427;-27.442;153.014;2022-12-07T03:00:23;100437.66;;;32.80
64916;BMP280;51427;-27.442;153.014;2022-12-07T03:03:04;100438.63;;;33.02
64916;BMP280;51427;-27.442;153.014;2022-12-07T03:11:05;100426.94;;;31.22
64916;BMP280;51427;-27.442;153.014;2022-12-07T03:18:44;100404.66;;;32.80
64916;BMP280;51427;-27.442;153.014;2022-12-07T03:21:23;100399.66;;;32.72
64916;BMP280;51427;-27.442;153.014;2022-12-07T03:23:56;100401.66;;;32.10
64916;BMP280;51427;-27.442;153.014;2022-12-07T03:26:38;100400.78;;;32.59
64916;BMP280;51427;-27.442;153.014;2022-12-07T03:29:15;100398.75;;;32.39
64916;BMP280;51427;-27.442;153.014;2022-12-07T03:31:48;100389.72;;;31.55
64916;BMP280;51427;-27.442;153.014;2022-12-07T03:35:12;100388.44;;;32.19
64916;BMP280;51427;-27.442;153.014;2022-12-07T03:37:48;100389.81;;;32.61
64916;BMP280;51427;-27.442;153.014;2022-12-07T03:40:40;100385.13;;;32.40
64916;BMP280;51427;-27.442;153.014;2022-12-07T03:43:08;100382.78;;;32.05
64916;BMP280;51427;-27.442;153.014;2022-12-07T03:45:53;100384.56;;;32.27
64916;BMP280;51427;-27.442;153.014;2022-12-07T03:48:35;100386.06;;;32.07
64916;BMP280;51427;-27.442;153.014;2022-12-07T03:53:40;100390.50;;;31.78
64916;BMP280;51427;-27.442;153.014;2022-12-07T03:56:10;100386.63;;;32.09
64916;BMP280;51427;-27.442;153.014;2022-12-07T03:58:39;100373.78;;;31.49
64916;BMP280;51427;-27.442;153.014;2022-12-07T04:01:07;100373.31;;;32.69
64916;BMP280;51427;-27.442;153.014;2022-12-07T04:03:35;100385.84;;;32.24
64916;BMP280;51427;-27.442;153.014;2022-12-07T04:06:02;100375.50;;;31.55
64916;BMP280;51427;-27.442;153.014;2022-12-07T04:08:30;100371.16;;;31.99
64916;BMP280;51427;-27.442;153.014;2022-12-07T04:10:58;100357.22;;;31.40
64916;BMP280;51427;-27.442;153.014;2022-12-07T04:13:25;100366.22;;;30.82
64916;BMP280;51427;-27.442;153.014;2022-12-07T04:15:53;100347.38;;;32.03
64916;BMP280;51427;-27.442;153.014;2022-12-07T04:18:20;100346.63;;;32.18
64916;BMP280;51427;-27.442;153.014;2022-12-07T04:20:48;100356.66;;;31.50
64916;BMP280;51427;-27.442;153.014;2022-12-07T04:23:16;100344.31;;;31.49
64916;BMP280;51427;-27.442;153.014;2022-12-07T04:25:44;100344.97;;;31.67
64916;BMP280;51427;-27.442;153.014;2022-12-07T04:28:11;100337.28;;;30.91
64916;BMP280;51427;-27.442;153.014;2022-12-07T04:30:39;100344.53;;;30.61
64916;BMP280;51427;-27.442;153.014;2022-12-07T04:33:10;100333.25;;;30.88
64916;BMP280;51427;-27.442;153.014;2022-12-07T04:35:37;100333.56;;;30.92
64916;BMP280;51427;-27.442;153.014;2022-12-07T04:38:05;100314.16;;;31.08
64916;BMP280;51427;-27.442;153.014;2022-12-07T04:40:33;100309.50;;;31.03
64916;BMP280;51427;-27.442;153.014;2022-12-07T04:43:00;100317.16;;;30.19
64916;BMP280;51427;-27.442;153.014;2022-12-07T04:45:28;100311.53;;;30.67
64916;BMP280;51427;-27.442;153.014;2022-12-07T04:47:55;100311.47;;;31.42
64916;BMP280;51427;-27.442;153.014;2022-12-07T04:50:23;100306.47;;;31.45
64916;BMP280;51427;-27.442;153.014;2022-12-07T04:52:51;100316.47;;;30.93
64916;BMP280;51427;-27.442;153.014;2022-12-07T04:55:18;100314.53;;;31.45
64916;BMP280;51427;-27.442;153.014;2022-12-07T04:57:46;100313.22;;;31.36
64916;BMP280;51427;-27.442;153.014;2022-12-07T05:00:13;100309.84;;;30.25
64916;BMP280;51427;-27.442;153.014;2022-12-07T05:02:41;100307.38;;;30.82
64916;BMP280;51427;-27.442;153.014;2022-12-07T05:05:09;100307.91;;;30.50
64916;BMP280;51427;-27.442;153.014;2022-12-07T05:07:36;100297.66;;;30.59
64916;BMP280;51427;-27.442;153.014;2022-12-07T05:10:04;100287.34;;;30.73
64916;BMP280;51427;-27.442;153.014;2022-12-07T05:12:32;100282.38;;;31.45
64916;BMP280;51427;-27.442;153.014;2022-12-07T05:15:00;100288.81;;;30.18
64916;BMP280;51427;-27.442;153.014;2022-12-07T05:17:27;100287.03;;;31.16
64916;BMP280;51427;-27.442;153.014;2022-12-07T05:19:55;100296.88;;;30.69
64916;BMP280;51427;-27.442;153.014;2022-12-07T05:22:22;100289.59;;;31.11
64916;BMP280;51427;-27.442;153.014;2022-12-07T05:24:55;100278.25;;;31.54
64916;BMP280;51427;-27.442;153.014;2022-12-07T05:27:23;100284.19;;;30.65
64916;BMP280;51427;-27.442;153.014;2022-12-07T05:29:51;100277.00;;;31.34
64916;BMP280;51427;-27.442;153.014;2022-12-07T05:32:19;100280.75;;;31.44
64916;BMP280;51427;-27.442;153.014;2022-12-07T05:34:46;100290.03;;;30.04
64916;BMP280;51427;-27.442;153.014;2022-12-07T05:37:14;100268.75;;;30.90
64916;BMP280;51427;-27.442;153.014;2022-12-07T05:39:41;100272.09;;;30.22
64916;BMP280;51427;-27.442;153.014;2022-12-07T05:42:10;100258.66;;;31.15
64916;BMP280;51427;-27.442;153.014;2022-12-07T05:44:42;100247.13;;;30.69
64916;BMP280;51427;-27.442;153.014;2022-12-07T05:47:10;100266.38;;;30.19
64916;BMP280;51427;-27.442;153.014;2022-12-07T05:49:38;100261.69;;;30.95
64916;BMP280;51427;-27.442;153.014;2022-12-07T05:52:05;100267.63;;;30.05
64916;BMP280;51427;-27.442;153.014;2022-12-07T05:54:33;100247.88;;;30.06
64916;BMP280;51427;-27.442;153.014;2022-12-07T05:57:00;100249.56;;;30.29
64916;BMP280;51427;-27.442;153.014;2022-12-07T05:59:27;100254.50;;;30.15
64916;BMP280;51427;-27.442;153.014;2022-12-07T06:01:58;100264.50;;;29.78
64916;BMP280;51427;-27.442;153.014;2022-12-07T06:04:28;100270.16;;;30.00
64916;BMP280;51427;-27.442;153.014;2022-12-07T06:06:55;100262.75;;;30.13
64916;BMP280;51427;-27.442;153.014;2022-12-07T06:09:24;100252.09;;;30.65
64916;BMP280;51427;-27.442;153.014;2022-12-07T06:11:52;100261.84;;;29.90
64916;BMP280;51427;-27.442;153.014;2022-12-07T06:14:37;100275.66;;;29.87
64916;BMP280;51427;-27.442;153.014;2022-12-07T06:17:05;100282.53;;;29.83
64916;BMP280;51427;-27.442;153.014;2022-12-07T06:19:33;100279.91;;;29.59
64916;BMP280;51427;-27.442;153.014;2022-12-07T06:22:02;100278.91;;;29.18
64916;BMP280;51427;-27.442;153.014;2022-12-07T06:24:31;100264.13;;;30.04
64916;BMP280;51427;-27.442;153.014;2022-12-07T06:26:59;100278.09;;;30.35
64916;BMP280;51427;-27.442;153.014;2022-12-07T06:29:26;100276.63;;;30.51
64916;BMP280;51427;-27.442;153.014;2022-12-07T06:31:54;100283.59;;;30.23
64916;BMP280;51427;-27.442;153.014;2022-12-07T06:34:23;100288.22;;;29.51
64916;BMP280;51427;-27.442;153.014;2022-12-07T06:36:51;100277.75;;;29.31
64916;BMP280;51427;-27.442;153.014;2022-12-07T06:39:27;100271.38;;;29.32
64916;BMP280;51427;-27.442;153.014;2022-12-07T06:41:55;100280.53;;;30.37
64916;BMP280;51427;-27.442;153.014;2022-12-07T06:44:23;100288.25;;;29.98
64916;BMP280;51427;-27.442;153.014;2022-12-07T06:46:51;100291.94;;;29.68
64916;BMP280;51427;-27.442;153.014;2022-12-07T06:49:18;100297.28;;;29.08
64916;BMP280;51427;-27.442;153.014;2022-12-07T06:51:46;100305.06;;;29.51
64916;BMP280;51427;-27.442;153.014;2022-12-07T06:54:14;100307.13;;;30.03
64916;BMP280;51427;-27.442;153.014;2022-12-07T06:56:42;100301.03;;;29.78
64916;BMP280;51427;-27.442;153.014;2022-12-07T06:59:09;100306.97;;;29.62
64916;BMP280;51427;-27.442;153.014;2022-12-07T07:01:37;100315.25;;;28.70
64916;BMP280;51427;-27.442;153.014;2022-12-07T07:04:04;100307.41;;;29.24
64916;BMP280;51427;-27.442;153.014;2022-12-07T07:06:32;100296.38;;;29.74
64916;BMP280;51427;-27.442;153.014;2022-12-07T07:08:59;100305.66;;;29.89
64916;BMP280;51427;-27.442;153.014;2022-12-07T07:11:27;100303.72;;;29.18
64916;BMP280;51427;-27.442;153.014;2022-12-07T07:13:54;100302.06;;;29.41
64916;BMP280;51427;-27.442;153.014;2022-12-07T07:16:23;100312.69;;;29.06
64916;BMP280;51427;-27.442;153.014;2022-12-07T07:18:51;100314.06;;;28.60
64916;BMP280;51427;-27.442;153.014;2022-12-07T07:21:18;100306.75;;;28.80
64916;BMP280;51427;-27.442;153.014;2022-12-07T07:23:45;100315.28;;;28.33
64916;BMP280;51427;-27.442;153.014;2022-12-07T07:26:12;100323.13;;;28.83
64916;BMP280;51427;-27.442;153.014;2022-12-07T07:28:39;100324.50;;;28.61
64916;BMP280;51427;-27.442;153.014;2022-12-07T07:31:07;100318.94;;;29.18
64916;BMP280;51427;-27.442;153.014;2022-12-07T07:33:34;100322.50;;;28.26
64916;BMP280;51427;-27.442;153.014;2022-12-07T07:36:01;100330.31;;;28.52
64916;BMP280;51427;-27.442;153.014;2022-12-07T07:38:28;100323.31;;;28.88
64916;BMP280;51427;-27.442;153.014;2022-12-07T07:40:55;100328.88;;;28.19
64916;BMP280;51427;-27.442;153.014;2022-12-07T07:43:23;100323.38;;;28.14
64916;BMP280;51427;-27.442;153.014;2022-12-07T07:45:50;100314.53;;;28.50
64916;BMP280;51427;-27.442;153.014;2022-12-07T07:48:17;100322.06;;;27.86
64916;BMP280;51427;-27.442;153.014;2022-12-07T07:50:44;100319.41;;;27.79
64916;BMP280;51427;-27.442;153.014;2022-12-07T07:53:11;100316.69;;;27.92
64916;BMP280;51427;-27.442;153.014;2022-12-07T07:55:38;100325.13;;;27.89
64916;BMP280;51427;-27.442;153.014;2022-12-07T07:58:06;100320.47;;;28.22
64916;BMP280;51427;-27.442;153.014;2022-12-07T08:00:33;100334.53;;;28.35
64916;BMP280;51427;-27.442;153.014;2022-12-07T08:03:00;100341.78;;;28.22
64916;BMP280;51427;-27.442;153.014;2022-12-07T08:05:27;100344.09;;;28.49
64916;BMP280;51427;-27.442;153.014;2022-12-07T08:07:54;100336.47;;;28.52
64916;BMP280;51427;-27.442;153.014;2022-12-07T08:10:22;100341.97;;;27.77
64916;BMP280;51427;-27.442;153.014;2022-12-07T08:12:49;100341.81;;;27.46
64916;BMP280;51427;-27.442;153.014;2022-12-07T08:15:38;100357.75;;;27.65
64916;BMP280;51427;-27.442;153.014;2022-12-07T08:18:05;100359.84;;;27.38
64916;BMP280;51427;-27.442;153.014;2022-12-07T08:20:33;100364.53;;;27.42
64916;BMP280;51427;-27.442;153.014;2022-12-07T08:23:01;100356.66;;;27.92
64916;BMP280;51427;-27.442;153.014;2022-12-07T08:25:29;100357.84;;;27.96
64916;BMP280;51427;-27.442;153.014;2022-12-07T08:27:57;100369.66;;;27.43
64916;BMP280;51427;-27.442;153.014;2022-12-07T08:30:24;100379.72;;;26.96
64916;BMP280;51427;-27.442;153.014;2022-12-07T08:32:51;100384.25;;;27.09
64916;BMP280;51427;-27.442;153.014;2022-12-07T08:35:19;100395.28;;;27.12
64916;BMP280;51427;-27.442;153.014;2022-12-07T08:37:46;100403.66;;;27.16
64916;BMP280;51427;-27.442;153.014;2022-12-07T08:40:14;100402.59;;;26.85
64916;BMP280;51427;-27.442;153.014;2022-12-07T08:42:42;100396.50;;;27.10
64916;BMP280;51427;-27.442;153.014;2022-12-07T08:45:12;100382.78;;;27.51
64916;BMP280;51427;-27.442;153.014;2022-12-07T08:47:50;100390.34;;;27.41
64916;BMP280;51427;-27.442;153.014;2022-12-07T08:50:19;100393.41;;;27.45
64916;BMP280;51427;-27.442;153.014;2022-12-07T08:52:51;100403.44;;;27.24
64916;BMP280;51427;-27.442;153.014;2022-12-07T08:55:20;100408.16;;;27.22
64916;BMP280;51427;-27.442;153.014;2022-12-07T08:57:47;100406.72;;;27.13
64916;BMP280;51427;-27.442;153.014;2022-12-07T09:00:15;100407.34;;;27.08
64916;BMP280;51427;-27.442;153.014;2022-12-07T09:02:44;100397.31;;;27.42
64916;BMP280;51427;-27.442;153.014;2022-12-07T09:05:12;100402.66;;;27.10
64916;BMP280;51427;-27.442;153.014;2022-12-07T09:07:43;100407.53;;;27.33
64916;BMP280;51427;-27.442;153.014;2022-12-07T09:10:11;100408.56;;;27.44
64916;BMP280;51427;-27.442;153.014;2022-12-07T09:12:38;100412.69;;;27.53
64916;BMP280;51427;-27.442;153.014;2022-12-07T09:15:06;100407.38;;;27.53
64916;BMP280;51427;-27.442;153.014;2022-12-07T09:17:34;100422.44;;;26.82
64916;BMP280;51427;-27.442;153.014;2022-12-07T09:20:04;100426.16;;;26.94
64916;BMP280;51427;-27.442;153.014;2022-12-07T09:22:32;100414.50;;;26.89
64916;BMP280;51427;-27.442;153.014;2022-12-07T09:25:00;100414.09;;;26.98
64916;BMP280;51427;-27.442;153.014;2022-12-07T09:27:28;100419.59;;;26.90
64916;BMP280;51427;-27.442;153.014;2022-12-07T09:29:55;100413.50;;;27.15
64916;BMP280;51427;-27.442;153.014;2022-12-07T09:32:23;100415.75;;;27.12
64916;BMP280;51427;-27.442;153.014;2022-12-07T09:34:50;100413.47;;;26.90
64916;BMP280;51427;-27.442;153.014;2022-12-07T09:37:18;100400.59;;;26.93
64916;BMP280;51427;-27.442;153.014;2022-12-07T09:39:45;100399.50;;;26.75
64916;BMP280;51427;-27.442;153.014;2022-12-07T09:42:35;100412.38;;;26.65
64916;BMP280;51427;-27.442;153.014;2022-12-07T09:45:06;100404.88;;;27.00
64916;BMP280;51427;-27.442;153.014;2022-12-07T09:47:34;100420.09;;;26.47
64916;BMP280;51427;-27.442;153.014;2022-12-07T09:50:14;100419.44;;;27.11
64916;BMP280;51427;-27.442;153.014;2022-12-07T09:52:44;100426.59;;;27.30
64916;BMP280;51427;-27.442;153.014;2022-12-07T09:55:16;100427.63;;;27.03
64916;BMP280;51427;-27.442;153.014;2022-12-07T09:57:45;100432.72;;;27.11
64916;BMP280;51427;-27.442;153.014;2022-12-07T10:00:15;100428.63;;;27.15
64916;BMP280;51427;-27.442;153.014;2022-12-07T10:02:46;100438.25;;;27.16
64916;BMP280;51427;-27.442;153.014;2022-12-07T10:05:18;100443.97;;;27.06
64916;BMP280;51427;-27.442;153.014;2022-12-07T10:07:45;100448.47;;;27.25
64916;BMP280;51427;-27.442;153.014;2022-12-07T10:10:29;100455.03;;;27.48
64916;BMP280;51427;-27.442;153.014;2022-12-07T10:13:06;100451.78;;;27.53
64916;BMP280;51427;-27.442;153.014;2022-12-07T10:15:55;100472.63;;;27.24
64916;BMP280;51427;-27.442;153.014;2022-12-07T10:20:49;100467.34;;;27.37
64916;BMP280;51427;-27.442;153.014;2022-12-07T10:23:26;100459.94;;;27.00
64916;BMP280;51427;-27.442;153.014;2022-12-07T10:25:53;100458.44;;;26.85
64916;BMP280;51427;-27.442;153.014;2022-12-07T10:28:21;100444.97;;;26.99
64916;BMP280;51427;-27.442;153.014;2022-12-07T10:30:52;100442.75;;;27.22
64916;BMP280;51427;-27.442;153.014;2022-12-07T10:36:17;100437.44;;;27.22
64916;BMP280;51427;-27.442;153.014;2022-12-07T10:39:15;100432.13;;;27.15
64916;BMP280;51427;-27.442;153.014;2022-12-07T10:42:03;100425.56;;;27.31
64916;BMP280;51427;-27.442;153.014;2022-12-07T10:44:33;100430.28;;;27.67
64916;BMP280;51427;-27.442;153.014;2022-12-07T10:52:38;100457.91;;;27.40
64916;BMP280;51427;-27.442;153.014;2022-12-07T10:55:46;100463.63;;;27.31
64916;BMP280;51427;-27.442;153.014;2022-12-07T11:01:18;100462.31;;;26.82
64916;BMP280;51427;-27.442;153.014;2022-12-07T11:06:39;100459.53;;;27.16
64916;BMP280;51427;-27.442;153.014;2022-12-07T11:09:20;100456.47;;;27.38
64916;BMP280;51427;-27.442;153.014;2022-12-07T11:17:25;100462.19;;;27.16
64916;BMP280;51427;-27.442;153.014;2022-12-07T11:20:29;100462.00;;;27.62
64916;BMP280;51427;-27.442;153.014;2022-12-07T11:23:02;100464.47;;;27.44
64916;BMP280;51427;-27.442;153.014;2022-12-07T11:28:21;100469.69;;;26.80
64916;BMP280;51427;-27.442;153.014;2022-12-07T11:33:38;100473.28;;;27.58
64916;BMP280;51427;-27.442;153.014;2022-12-07T11:36:16;100468.75;;;27.26
64916;BMP280;51427;-27.442;153.014;2022-12-07T11:38:56;100474.69;;;27.35
64916;BMP280;51427;-27.442;153.014;2022-12-07T11:41:31;100489.22;;;27.32
64916;BMP280;51427;-27.442;153.014;2022-12-07T11:44:12;100501.72;;;27.38
64916;BMP280;51427;-27.442;153.014;2022-12-07T11:49:37;100621.16;;;27.86
64916;BMP280;51427;-27.442;153.014;2022-12-07T11:53:00;100719.38;;;27.42
64916;BMP280;51427;-27.442;153.014;2022-12-07T11:55:02;100695.22;;;27.44
64916;BMP280;51427;-27.442;153.014;2022-12-07T11:57:47;100602.47;;;27.47
64916;BMP280;51427;-27.442;153.014;2022-12-07T12:00:17;100582.44;;;28.09
64916;BMP280;51427;-27.442;153.014;2022-12-07T12:05:22;100547.72;;;27.00
64916;BMP280;51427;-27.442;153.014;2022-12-07T12:13:28;100547.53;;;27.08
64916;BMP280;51427;-27.442;153.014;2022-12-07T12:22:17;100579.97;;;27.56
64916;BMP280;51427;-27.442;153.014;2022-12-07T12:24:51;100576.19;;;27.19
64916;BMP280;51427;-27.442;153.014;2022-12-07T12:27:31;100569.22;;;27.18
64916;BMP280;51427;-27.442;153.014;2022-12-07T12:30:02;100576.19;;;27.32
64916;BMP280;51427;-27.442;153.014;2022-12-07T12:32:38;100598.34;;;27.38
64916;BMP280;51427;-27.442;153.014;2022-12-07T12:37:55;100642.88;;;27.11
64916;BMP280;51427;-27.442;153.014;2022-12-07T12:42:58;100606.94;;;27.34
64916;BMP280;51427;-27.442;153.014;2022-12-07T12:45:32;100607.72;;;27.15
64916;BMP280;51427;-27.442;153.014;2022-12-07T12:48:27;100618.88;;;27.57
64916;BMP280;51427;-27.442;153.014;2022-12-07T12:51:58;100623.69;;;27.28
64916;BMP280;51427;-27.442;153.014;2022-12-07T12:54:14;100629.72;;;26.96
64916;BMP280;51427;-27.442;153.014;2022-12-07T13:04:52;100498.47;;;26.24
64916;BMP280;51427;-27.442;153.014;2022-12-07T13:13:03;100406.59;;;26.48
64916;BMP280;51427;-27.442;153.014;2022-12-07T13:15:40;100382.88;;;26.41
64916;BMP280;51427;-27.442;153.014;2022-12-07T13:23:31;100369.69;;;27.24
64916;BMP280;51427;-27.442;153.014;2022-12-07T13:28:47;100350.22;;;27.30
64916;BMP280;51427;-27.442;153.014;2022-12-07T13:33:45;100319.53;;;26.83
64916;BMP280;51427;-27.442;153.014;2022-12-07T13:36:25;100316.09;;;27.08
64916;BMP280;51427;-27.442;153.014;2022-12-07T13:38:55;100310.03;;;27.64
64916;BMP280;51427;-27.442;153.014;2022-12-07T13:41:25;100313.72;;;27.69
64916;BMP280;51427;-27.442;153.014;2022-12-07T13:44:14;100309.69;;;27.54
64916;BMP280;51427;-27.442;153.014;2022-12-07T13:47:13;100297.28;;;26.96
64916;BMP280;51427;-27.442;153.014;2022-12-07T13:49:59;100283.97;;;26.71
64916;BMP280;51427;-27.442;153.014;2022-12-07T13:52:30;100299.72;;;26.79
64916;BMP280;51427;-27.442;153.014;2022-12-07T13:57:33;100304.94;;;27.62
64916;BMP280;51427;-27.442;153.014;2022-12-07T14:00:05;100296.94;;;27.62
64916;BMP280;51427;-27.442;153.014;2022-12-07T14:02:34;100294.72;;;27.46
64916;BMP280;51427;-27.442;153.014;2022-12-07T14:05:24;100313.53;;;27.64
64916;BMP280;51427;-27.442;153.014;2022-12-07T14:10:55;100375.03;;;26.98
64916;BMP280;51427;-27.442;153.014;2022-12-07T14:13:37;100388.13;;;26.93
64916;BMP280;51427;-27.442;153.014;2022-12-07T14:16:25;100426.13;;;26.88
64916;BMP280;51427;-27.442;153.014;2022-12-07T14:18:55;100463.50;;;26.60
64916;BMP280;51427;-27.442;153.014;2022-12-07T14:21:26;100436.41;;;27.36
64916;BMP280;51427;-27.442;153.014;2022-12-07T14:24:11;100434.34;;;26.27
64916;BMP280;51427;-27.442;153.014;2022-12-07T14:26:39;100406.22;;;26.51
64916;BMP280;51427;-27.442;153.014;2022-12-07T14:29:39;100386.06;;;26.23
64916;BMP280;51427;-27.442;153.014;2022-12-07T14:32:34;100414.72;;;27.51
64916;BMP280;51427;-27.442;153.014;2022-12-07T14:35:03;100486.94;;;26.97
64916;BMP280;51427;-27.442;153.014;2022-12-07T14:37:31;100473.44;;;27.11
64916;BMP280;51427;-27.442;153.014;2022-12-07T14:39:58;100475.44;;;26.96
64916;BMP280;51427;-27.442;153.014;2022-12-07T14:42:28;100456.63;;;26.92
64916;BMP280;51427;-27.442;153.014;2022-12-07T14:44:56;100414.63;;;26.61
64916;BMP280;51427;-27.442;153.014;2022-12-07T14:47:25;100406.31;;;26.90
64916;BMP280;51427;-27.442;153.014;2022-12-07T14:49:53;100415.75;;;27.50
64916;BMP280;51427;-27.442;153.014;2022-12-07T14:52:23;100399.09;;;27.81
64916;BMP280;51427;-27.442;153.014;2022-12-07T14:54:51;100389.16;;;27.18
64916;BMP280;51427;-27.442;153.014;2022-12-07T14:57:19;100354.06;;;26.38
64916;BMP280;51427;-27.442;153.014;2022-12-07T14:59:46;100330.00;;;25.99
64916;BMP280;51427;-27.442;153.014;2022-12-07T15:02:15;100314.63;;;27.50
64916;BMP280;51427;-27.442;153.014;2022-12-07T15:04:43;100311.88;;;27.70
64916;BMP280;51427;-27.442;153.014;2022-12-07T15:07:18;100308.56;;;27.74
64916;BMP280;51427;-27.442;153.014;2022-12-07T15:09:47;100301.53;;;27.30
64916;BMP280;51427;-27.442;153.014;2022-12-07T15:12:14;100303.72;;;28.02
64916;BMP280;51427;-27.442;153.014;2022-12-07T15:14:41;100310.78;;;27.90
64916;BMP280;51427;-27.442;153.014;2022-12-07T15:17:11;100319.53;;;28.10
64916;BMP280;51427;-27.442;153.014;2022-12-07T15:19:41;100309.91;;;28.02
64916;BMP280;51427;-27.442;153.014;2022-12-07T15:22:08;100302.50;;;27.48
64916;BMP280;51427;-27.442;153.014;2022-12-07T15:24:37;100298.66;;;27.31
64916;BMP280;51427;-27.442;153.014;2022-12-07T15:27:04;100310.72;;;27.40
64916;BMP280;51427;-27.442;153.014;2022-12-07T15:29:32;100320.13;;;26.40
64916;BMP280;51427;-27.442;153.014;2022-12-07T15:31:59;100345.09;;;26.45
64916;BMP280;51427;-27.442;153.014;2022-12-07T15:34:27;100344.88;;;26.46
64916;BMP280;51427;-27.442;153.014;2022-12-07T15:36:55;100349.59;;;26.57
64916;BMP280;51427;-27.442;153.014;2022-12-07T15:39:22;100370.19;;;26.36
64916;BMP280;51427;-27.442;153.014;2022-12-07T15:41:49;100400.03;;;26.38